Time;durP1;ratioP1;P1;durP2;ratioP2;P2;SDS_P1;SDS_P2;PMS_P1;PMS_P2;Temp;Humidity;BMP_temperature;BMP_pressure;BME280_temperature;BME280_humidity;BME280_pressure;Samples;Min_cycle;Max_cycle;Signal;HPM_P1;HPM_P2
2021/07/15 00:00:37;;;;;;;6.62;4.15;;;;;;;18.81;81.57;100909.96;1789015;79;21409;-73
2021/07/15 00:03:07;;;;;;;7.72;3.77;;;;;;;18.79;81.72;100907.09;1789147;79;20986;-74
2021/07/15 00:05:39;;;;;;;7.15;3.58;;;;;;;18.77;81.91;100906.36;1789241;80;21133;-74
2021/07/15 00:08:10;;;;;;;6.00;2.92;;;;;;;18.74;81.98;100908.81;1789096;79;20880;-73
2021/07/15 00:10:45;;;;;;;7.17;3.75;;;;;;;18.72;81.91;100920.06;1789031;80;21456;-73
2021/07/15 00:13:14;;;;;;;5.35;3.30;;;;;;;18.68;81.85;100914.67;1788949;80;20908;-74
2021/07/15 00:15:44;;;;;;;8.45;3.62;;;;;;;18.66;81.83;100911.30;1789103;79;21122;-73
2021/07/15 00:18:12;;;;;;;6.75;3.15;;;;;;;18.63;81.81;100909.77;1789151;80;21114;-74
2021/07/15 00:20:44;;;;;;;3.95;3.60;;;;;;;18.61;81.80;100914.38;1789158;80;20876;-75
2021/07/15 00:23:11;;;;;;;6.53;4.10;;;;;;;18.60;81.93;100914.50;1788760;80;21452;-79
2021/07/15 00:25:40;;;;;;;5.58;3.22;;;;;;;18.58;82.04;100913.80;1789223;80;20904;-76
2021/07/15 00:28:46;;;;;;;8.68;3.70;;;;;;;18.60;82.23;100910.02;1816527;79;22470;-76
2021/07/15 00:31:15;;;;;;;7.50;3.47;;;;;;;18.56;82.22;100908.61;1789578;80;21319;-75
2021/07/15 00:33:42;;;;;;;5.80;3.70;;;;;;;18.55;82.13;100913.59;1789506;80;21555;-75
2021/07/15 00:36:09;;;;;;;8.35;3.42;;;;;;;18.53;82.20;100915.54;1789625;80;20935;-79
2021/07/15 00:38:38;;;;;;;7.15;3.55;;;;;;;18.52;82.30;100916.99;1789571;80;21369;-77
2021/07/15 00:41:06;;;;;;;4.90;3.20;;;;;;;18.49;82.38;100919.44;1789684;80;21117;-78
2021/07/15 00:43:33;;;;;;;6.58;3.60;;;;;;;18.48;82.44;100916.45;1789652;80;20908;-77
2021/07/15 00:46:02;;;;;;;6.58;3.10;;;;;;;18.45;82.67;100911.39;1789515;80;20892;-77
2021/07/15 00:48:29;;;;;;;5.37;3.58;;;;;;;18.43;82.80;100908.02;1789386;80;21081;-79
2021/07/15 00:50:57;;;;;;;4.72;3.20;;;;;;;18.42;82.88;100910.34;1789467;80;20927;-77
2021/07/15 00:53:25;;;;;;;6.50;3.50;;;;;;;18.40;82.95;100905.16;1789433;80;20856;-77
2021/07/15 00:55:52;;;;;;;4.65;3.60;;;;;;;18.40;82.86;100909.64;1789584;80;20912;-77
2021/07/15 00:58:20;;;;;;;6.33;3.58;;;;;;;18.37;82.89;100908.09;1789634;80;20909;-77
2021/07/15 01:00:48;;;;;;;3.87;3.45;;;;;;;18.36;82.95;100909.55;1789590;80;20821;-77
2021/07/15 01:03:18;;;;;;;4.92;3.67;;;;;;;18.35;83.00;100907.88;1789657;80;20967;-77
2021/07/15 01:05:49;;;;;;;9.58;3.87;;;;;;;18.32;83.04;100906.34;1789723;80;20900;-78
2021/07/15 01:08:17;;;;;;;6.17;3.40;;;;;;;18.31;82.86;100910.45;1789637;80;20833;-76
2021/07/15 01:11:01;;;;;;;12.23;3.50;;;;;;;18.29;82.71;100906.59;1789987;80;21106;-77
2021/07/15 01:13:54;;;;;;;5.53;2.62;;;;;;;18.27;82.72;100909.03;1776926;80;20864;-75
2021/07/15 01:16:38;;;;;;;3.80;3.15;;;;;;;18.23;82.70;100909.81;1788927;80;20884;-75
2021/07/15 01:19:31;;;;;;;5.97;3.35;;;;;;;18.21;82.65;100908.61;1789851;80;20932;-76
2021/07/15 01:22:19;;;;;;;9.13;2.90;;;;;;;18.18;82.77;100910.68;1772027;79;21377;-76
2021/07/15 01:25:34;;;;;;;4.75;3.55;;;;;;;18.16;82.99;100917.47;1767090;80;20888;-76
2021/07/15 01:28:17;;;;;;;4.90;3.47;;;;;;;18.12;83.16;100911.20;1722049;83;20943;-74
2021/07/15 01:30:49;;;;;;;8.23;3.47;;;;;;;18.09;83.55;100904.86;1722584;83;20948;-73
2021/07/15 01:33:27;;;;;;;9.00;3.30;;;;;;;18.07;83.62;100911.61;1722507;82;20915;-74
2021/07/15 01:35:59;;;;;;;7.70;2.90;;;;;;;18.08;83.63;100909.33;1722641;82;21467;-73
2021/07/15 01:38:42;;;;;;;4.22;2.80;;;;;;;18.05;83.59;100911.40;1722891;82;21195;-75
2021/07/15 01:41:21;;;;;;;4.42;2.98;;;;;;;18.04;83.63;100905.75;1722070;82;21042;-75
2021/07/15 01:43:56;;;;;;;6.87;3.20;;;;;;;18.03;83.66;100902.27;1721985;82;20951;-75
2021/07/15 01:46:23;;;;;;;5.22;2.80;;;;;;;18.01;83.58;100903.71;1722249;83;21062;-75
2021/07/15 01:48:51;;;;;;;10.43;3.42;;;;;;;17.98;83.61;100894.67;1722037;82;21412;-75
2021/07/15 01:51:19;;;;;;;4.58;2.98;;;;;;;17.97;83.65;100891.68;1722264;83;21511;-77
2021/07/15 01:53:48;;;;;;;8.48;3.08;;;;;;;17.96;83.63;100899.30;1721959;82;21060;-77
2021/07/15 01:56:16;;;;;;;5.50;2.83;;;;;;;17.96;83.58;100901.09;1722398;83;20939;-76
2021/07/15 01:58:43;;;;;;;5.42;3.22;;;;;;;17.94;83.48;100893.75;1755650;80;20967;-74
2021/07/15 02:01:10;;;;;;;5.72;3.80;;;;;;;17.93;83.33;100898.72;1758880;80;20956;-74
2021/07/15 02:03:41;;;;;;;12.23;4.55;;;;;;;17.90;83.30;100895.02;1784118;80;22017;-75
2021/07/15 02:06:10;;;;;;;4.42;3.55;;;;;;;17.90;83.44;100896.34;1788716;80;20971;-75
2021/07/15 02:08:37;;;;;;;8.30;3.30;;;;;;;17.89;83.48;100899.45;1788960;80;20892;-75
2021/07/15 02:11:06;;;;;;;5.30;3.20;;;;;;;17.87;83.56;100892.61;1788936;80;20872;-74
2021/07/15 02:13:35;;;;;;;6.45;3.58;;;;;;;17.87;83.67;100899.23;1789074;80;20900;-75
2021/07/15 02:16:04;;;;;;;5.08;3.20;;;;;;;17.87;83.67;100900.56;1784136;80;21217;-74
2021/07/15 02:18:32;;;;;;;7.97;3.92;;;;;;;17.86;83.58;100899.73;1788885;80;20935;-75
2021/07/15 02:20:59;;;;;;;6.00;3.75;;;;;;;17.85;83.65;100894.05;1784102;80;20951;-75
2021/07/15 02:23:29;;;;;;;9.03;3.70;;;;;;;17.86;83.75;100896.25;1759118;80;20884;-74
2021/07/15 02:25:56;;;;;;;11.38;3.98;;;;;;;17.86;83.71;100898.41;1789237;80;20923;-74
2021/07/15 02:28:26;;;;;;;7.30;3.35;;;;;;;17.86;83.75;100910.34;1780189;80;21135;-74
2021/07/15 02:31:01;;;;;;;12.43;4.60;;;;;;;17.87;83.67;100909.36;1775555;80;21367;-74
2021/07/15 02:33:28;;;;;;;8.65;3.52;;;;;;;17.87;83.54;100911.18;1775028;80;20912;-74
2021/07/15 02:35:59;;;;;;;9.80;5.22;;;;;;;17.87;83.50;100905.88;1775768;80;20925;-74
2021/07/15 02:38:25;;;;;;;12.28;4.30;;;;;;;17.87;83.41;100912.50;1775492;80;20896;-74
2021/07/15 02:40:54;;;;;;;5.65;4.08;;;;;;;17.86;83.42;100914.33;1775328;80;20911;-75
2021/07/15 02:43:21;;;;;;;7.80;4.60;;;;;;;17.87;83.43;100908.52;1775259;80;20873;-74
2021/07/15 02:45:52;;;;;;;9.48;5.20;;;;;;;17.87;83.67;100911.18;1775283;80;21496;-74
2021/07/15 02:48:19;;;;;;;9.63;4.87;;;;;;;17.88;83.82;100916.86;1775328;80;21007;-73
2021/07/15 02:50:47;;;;;;;12.37;4.80;;;;;;;17.88;83.85;100917.69;1775541;80;20873;-74
2021/07/15 02:53:16;;;;;;;9.68;4.83;;;;;;;17.89;83.95;100914.05;1775415;80;21154;-75
2021/07/15 02:55:48;;;;;;;11.22;5.83;;;;;;;17.91;84.04;100916.58;1744586;80;20976;-77
2021/07/15 02:58:26;;;;;;;14.90;4.87;;;;;;;17.93;84.22;100913.31;1775450;80;20924;-75
2021/07/15 03:01:03;;;;;;;9.55;4.55;;;;;;;17.96;84.21;100915.69;1775615;80;21478;-76
2021/07/15 03:04:01;;;;;;;7.75;4.78;;;;;;;17.98;84.17;100916.39;1775662;80;20936;-72
2021/07/15 03:06:39;;;;;;;13.20;4.62;;;;;;;17.99;84.16;100918.09;1775241;80;21152;-73
2021/07/15 03:09:12;;;;;;;11.75;4.83;;;;;;;18.03;84.21;100915.53;1775227;80;21370;-72
2021/07/15 03:12:00;;;;;;;14.95;5.15;;;;;;;18.07;84.47;100908.95;1775318;80;21093;-74
2021/07/15 03:14:24;;;;;;;17.60;5.58;;;;;;;18.11;84.48;100910.38;1774761;80;20934;-73
2021/07/15 03:16:51;;;;;;;13.13;5.37;;;;;;;18.17;84.61;100912.50;1779019;80;20936;-73
2021/07/15 03:19:18;;;;;;;13.98;5.05;;;;;;;18.23;84.67;100911.97;1775959;80;21507;-73
2021/07/15 03:21:45;;;;;;;14.50;6.22;;;;;;;18.29;84.76;100901.78;1775454;80;20881;-74
2021/07/15 03:24:14;;;;;;;15.90;6.30;;;;;;;18.34;84.69;100911.03;1775348;80;20924;-74
2021/07/15 03:26:42;;;;;;;16.90;6.87;;;;;;;18.41;84.61;100907.34;1775257;80;20941;-74
2021/07/15 03:29:09;;;;;;;13.20;5.62;;;;;;;18.46;84.57;100913.08;1778733;80;21492;-73
2021/07/15 03:31:36;;;;;;;8.15;5.22;;;;;;;18.53;84.53;100904.08;1778790;80;21218;-74
2021/07/15 03:34:05;;;;;;;8.55;5.20;;;;;;;18.58;84.50;100901.34;1775249;80;20880;-74
2021/07/15 03:36:35;;;;;;;18.37;6.08;;;;;;;18.66;84.52;100911.30;1775361;80;20994;-75
2021/07/15 03:39:03;;;;;;;14.45;5.28;;;;;;;18.72;84.48;100910.77;1775469;80;21043;-73
2021/07/15 03:41:30;;;;;;;12.15;6.60;;;;;;;18.81;84.57;100921.09;1775252;80;20967;-73
2021/07/15 03:43:57;;;;;;;15.55;6.40;;;;;;;18.88;84.47;100920.88;1775238;80;21201;-74
2021/07/15 03:46:27;;;;;;;7.58;5.58;;;;;;;18.96;84.35;100924.98;1775324;80;20960;-74
2021/07/15 03:48:55;;;;;;;14.23;6.37;;;;;;;19.04;84.19;100928.30;1775259;80;20885;-74
2021/07/15 03:51:24;;;;;;;8.55;4.72;;;;;;;19.12;83.87;100927.58;1778350;80;21402;-73
2021/07/15 03:53:52;;;;;;;20.30;12.20;;;;;;;19.19;83.45;100929.56;1775484;80;20932;-75
2021/07/15 03:56:21;;;;;;;9.95;5.60;;;;;;;19.28;82.91;100931.86;1775341;80;21343;-75
2021/07/15 03:58:48;;;;;;;9.78;6.40;;;;;;;19.38;82.51;100927.36;1775237;80;20873;-74
2021/07/15 04:01:15;;;;;;;9.58;5.53;;;;;;;19.47;82.09;100925.67;1775394;80;20932;-75
2021/07/15 04:03:44;;;;;;;12.25;6.17;;;;;;;19.56;81.67;100934.62;1775477;80;21465;-74
2021/07/15 04:06:11;;;;;;;8.88;5.35;;;;;;;19.65;81.43;100937.28;1775386;80;20861;-73
2021/07/15 04:08:42;;;;;;;9.63;5.33;;;;;;;19.76;81.30;100929.63;1753781;80;20936;-72
2021/07/15 04:11:09;;;;;;;7.42;4.35;;;;;;;19.88;80.96;100932.48;1775372;80;21003;-74
2021/07/15 04:13:36;;;;;;;8.30;4.53;;;;;;;20.02;80.56;100932.99;1775639;80;21401;-74
2021/07/15 04:16:34;;;;;;;8.05;4.12;;;;;;;20.16;80.18;100932.50;1775312;80;20881;-73
2021/07/15 04:19:04;;;;;;;6.53;4.85;;;;;;;20.35;79.68;100932.92;1775615;80;21075;-73
2021/07/15 04:21:33;;;;;;;12.47;4.83;;;;;;;20.62;78.87;100935.25;1775256;80;20925;-74
2021/07/15 04:24:01;;;;;;;13.53;4.37;;;;;;;20.95;78.08;100942.27;1775222;80;21016;-73
2021/07/15 04:26:27;;;;;;;11.00;4.17;;;;;;;21.48;76.93;100941.42;1779383;80;20964;-74
2021/07/15 04:28:54;;;;;;;29.10;6.30;;;;;;;22.18;75.15;100939.99;1779990;80;20937;-77
2021/07/15 04:31:38;;;;;;;13.40;5.42;;;;;;;22.90;73.24;100936.89;1753141;80;20944;-75
2021/07/15 04:34:04;;;;;;;;;;;;;;;23.63;70.94;100935.27;1780346;80;21148;-76
2021/07/15 04:36:32;;;;;;;15.13;4.97;;;;;;;24.45;67.90;100939.05;1783511;80;20100;-74
2021/07/15 04:39:00;;;;;;;9.88;4.53;;;;;;;25.07;65.68;100939.03;1783674;80;21532;-74
2021/07/15 04:41:27;;;;;;;12.47;5.22;;;;;;;25.63;63.33;100938.25;1783430;80;20892;-74
2021/07/15 04:43:56;;;;;;;3.62;3.30;;;;;;;26.21;61.28;100934.94;1783491;80;20915;-73
2021/07/15 04:46:23;;;;;;;12.30;4.03;;;;;;;26.74;59.45;100934.77;1783477;80;21750;-74
2021/07/15 04:48:50;;;;;;;9.68;4.20;;;;;;;27.25;57.85;100933.32;1783454;80;20995;-74
2021/07/15 04:51:18;;;;;;;8.73;4.20;;;;;;;27.73;56.32;100940.75;1783576;80;20947;-73
2021/07/15 04:53:47;;;;;;;9.68;4.83;;;;;;;28.17;54.94;100935.02;1783443;80;20865;-73
2021/07/15 04:56:14;;;;;;;12.30;3.92;;;;;;;28.59;53.53;100938.52;1778466;80;20920;-75
2021/07/15 04:58:42;;;;;;;5.75;5.10;;;;;;;28.99;52.75;100935.05;1783442;80;21557;-72
2021/07/15 05:01:10;;;;;;;5.87;2.98;;;;;;;29.34;51.38;100928.97;1783446;80;21109;-74
2021/07/15 05:03:39;;;;;;;6.03;3.65;;;;;;;29.72;50.50;100926.45;1783481;80;20889;-75
2021/07/15 05:06:07;;;;;;;8.63;3.72;;;;;;;30.09;50.00;100928.14;1783408;80;20907;-74
2021/07/15 05:08:39;;;;;;;7.55;3.22;;;;;;;30.44;48.89;100927.82;1783430;80;21497;-72
2021/07/15 05:11:10;;;;;;;12.98;4.10;;;;;;;30.80;48.02;100926.89;1783487;80;21093;-72
2021/07/15 05:13:37;;;;;;;8.33;3.27;;;;;;;31.18;47.07;100921.42;1783360;80;20880;-74
2021/07/15 05:16:05;;;;;;;6.35;3.15;;;;;;;31.55;45.84;100916.95;1783651;80;20897;-72
2021/07/15 05:18:32;;;;;;;7.55;3.58;;;;;;;31.83;45.23;100916.13;1783952;80;20912;-72
2021/07/15 05:21:00;;;;;;;8.70;3.75;;;;;;;32.11;44.51;100912.39;1783570;80;21042;-74
2021/07/15 05:23:27;;;;;;;5.83;3.80;;;;;;;32.43;43.59;100910.81;1783759;80;21139;-73
2021/07/15 05:25:56;;;;;;;10.35;4.05;;;;;;;32.71;42.82;100912.14;1783596;80;20875;-73
2021/07/15 05:28:23;;;;;;;9.30;3.95;;;;;;;32.95;42.11;100909.78;1783609;80;20896;-71
2021/07/15 05:30:52;;;;;;;8.30;3.12;;;;;;;33.21;41.30;100908.52;1783632;80;20894;-71
2021/07/15 05:33:21;;;;;;;7.85;2.75;;;;;;;33.43;40.57;100914.73;1783343;80;21440;-72
2021/07/15 05:35:48;;;;;;;6.20;3.33;;;;;;;33.62;40.04;100909.50;1783848;80;21144;-72
2021/07/15 05:38:16;;;;;;;7.62;3.27;;;;;;;33.83;39.69;100918.09;1783610;80;20920;-72
2021/07/15 05:40:43;;;;;;;8.45;3.12;;;;;;;34.07;39.23;100913.44;1783539;80;20908;-72
2021/07/15 05:43:11;;;;;;;5.85;3.52;;;;;;;34.34;38.40;100918.34;1783620;80;20940;-71
2021/07/15 05:45:38;;;;;;;5.92;3.02;;;;;;;34.57;38.35;100912.77;1783640;80;20888;-72
2021/07/15 05:48:05;;;;;;;7.53;3.52;;;;;;;34.75;37.66;100916.39;1783592;80;21082;-72
2021/07/15 05:50:33;;;;;;;11.38;4.50;;;;;;;34.85;37.95;100915.22;1783619;80;20936;-79
2021/07/15 05:53:02;;;;;;;12.00;3.37;;;;;;;34.98;37.41;100921.70;1785194;80;20928;-82
2021/07/15 05:55:29;;;;;;;13.32;4.00;;;;;;;35.00;35.90;100910.56;1783986;80;20940;-83
2021/07/15 05:57:56;;;;;;;7.03;3.58;;;;;;;35.00;35.46;100913.29;1783770;80;21448;-82
2021/07/15 06:00:23;;;;;;;7.53;2.85;;;;;;;35.07;35.74;100907.13;1783686;80;21801;-77
2021/07/15 06:02:49;;;;;;;11.38;3.60;;;;;;;35.23;35.69;100907.67;1783564;80;21003;-77
2021/07/15 06:05:18;;;;;;;8.78;3.22;;;;;;;35.38;35.49;100906.27;1782995;80;20884;-80
2021/07/15 06:07:45;;;;;;;6.42;3.00;;;;;;;35.57;34.55;100902.70;1783432;80;20943;-79
2021/07/15 06:10:12;;;;;;;4.83;2.45;;;;;;;35.79;34.60;100895.94;1783648;80;21434;-77
2021/07/15 06:12:39;;;;;;;6.37;3.15;;;;;;;35.90;33.76;100894.98;1783571;80;21119;-78
2021/07/15 06:15:06;;;;;;;6.67;3.17;;;;;;;35.92;33.96;100890.64;1783402;80;20877;-78
2021/07/15 06:17:35;;;;;;;11.40;2.87;;;;;;;35.82;33.94;100892.69;1783611;80;20936;-78
2021/07/15 06:20:04;;;;;;;8.08;2.77;;;;;;;35.76;34.45;100886.90;1783616;80;20963;-81
2021/07/15 06:22:33;;;;;;;16.27;2.80;;;;;;;35.88;33.63;100892.49;1783673;80;20892;-77
2021/07/15 06:25:01;;;;;;;10.48;3.40;;;;;;;35.95;32.64;100885.47;1783725;80;21154;-78
2021/07/15 06:27:29;;;;;;;11.05;2.67;;;;;;;36.05;32.61;100888.34;1783603;80;21532;-79
2021/07/15 06:29:56;;;;;;;9.03;2.72;;;;;;;36.17;32.11;100888.77;1783643;80;21373;-77
2021/07/15 06:32:23;;;;;;;5.55;2.50;;;;;;;36.14;32.10;100889.29;1783552;80;20939;-77
2021/07/15 06:34:50;;;;;;;7.12;2.37;;;;;;;36.15;32.07;100892.29;1783846;80;21066;-77
2021/07/15 06:37:19;;;;;;;10.23;2.95;;;;;;;36.28;32.45;100886.42;1783617;80;20881;-81
2021/07/15 06:39:47;;;;;;;8.40;3.17;;;;;;;36.51;32.88;100886.12;1783520;80;20908;-71
2021/07/15 06:42:14;;;;;;;4.33;2.70;;;;;;;36.70;32.93;100887.95;1783509;80;21003;-73
2021/07/15 06:44:43;;;;;;;6.87;2.95;;;;;;;36.86;32.56;100886.16;1783435;80;21409;-73
2021/07/15 06:47:11;;;;;;;9.75;2.87;;;;;;;36.84;32.38;100882.05;1783262;80;21429;-73
2021/07/15 06:49:38;;;;;;;11.45;3.05;;;;;;;36.90;32.81;100876.91;1783692;80;22101;-73
2021/07/15 06:52:06;;;;;;;5.25;3.20;;;;;;;37.06;32.26;100876.48;1783493;80;20888;-73
2021/07/15 06:54:34;;;;;;;7.42;3.15;;;;;;;37.16;32.25;100876.59;1783561;80;20856;-78
2021/07/15 06:57:01;;;;;;;6.78;2.83;;;;;;;37.32;32.42;100876.13;1783474;80;20904;-73
2021/07/15 06:59:28;;;;;;;5.67;3.20;;;;;;;37.54;32.39;100878.16;1783871;80;20940;-70
2021/07/15 07:01:56;;;;;;;7.87;2.95;;;;;;;37.79;32.43;100876.66;1783483;80;21956;-71
2021/07/15 07:04:22;;;;;;;3.95;3.12;;;;;;;37.91;31.42;100875.08;1783706;80;20991;-70
2021/07/15 07:06:49;;;;;;;10.80;3.58;;;;;;;38.09;31.12;100867.77;1783523;80;20947;-70
2021/07/15 07:09:16;;;;;;;5.62;2.80;;;;;;;38.29;30.30;100862.88;1783659;80;20900;-73
2021/07/15 07:11:44;;;;;;;6.17;3.42;;;;;;;38.45;29.91;100860.97;1783532;80;21007;-73
2021/07/15 07:14:11;;;;;;;8.55;3.08;;;;;;;38.59;30.31;100862.64;1783843;80;21113;-74
2021/07/15 07:16:39;;;;;;;9.53;2.50;;;;;;;38.81;30.30;100864.30;1783486;80;20907;-73
2021/07/15 07:19:06;;;;;;;7.35;2.77;;;;;;;38.98;29.94;100863.49;1783496;80;21452;-73
2021/07/15 07:21:34;;;;;;;8.35;3.10;;;;;;;39.13;29.58;100852.49;1783623;80;20861;-72
2021/07/15 07:24:02;;;;;;;5.12;2.67;;;;;;;39.28;29.24;100857.09;1783573;80;20928;-74
2021/07/15 07:26:29;;;;;;;7.65;2.72;;;;;;;39.37;28.84;100855.42;1784253;80;21111;-73
2021/07/15 07:28:56;;;;;;;9.73;3.33;;;;;;;39.50;28.04;100862.27;1783458;80;20876;-72
2021/07/15 07:31:26;;;;;;;8.08;2.72;;;;;;;39.56;28.37;100856.23;1783545;80;20968;-72
2021/07/15 07:33:54;;;;;;;5.87;3.00;;;;;;;39.61;27.18;100859.50;1783585;80;20939;-72
2021/07/15 07:36:21;;;;;;;6.75;2.70;;;;;;;39.59;27.47;100848.80;1783415;80;20908;-73
2021/07/15 07:38:49;;;;;;;5.08;2.83;;;;;;;39.57;27.79;100850.44;1783508;80;21067;-73
2021/07/15 07:41:16;;;;;;;6.47;2.27;;;;;;;39.64;28.22;100847.95;1783790;80;20924;-71
2021/07/15 07:43:43;;;;;;;6.70;2.67;;;;;;;39.78;27.54;100844.88;1783458;80;20932;-72
2021/07/15 07:46:10;;;;;;;5.03;2.55;;;;;;;39.75;26.67;100844.05;1783380;80;20983;-73
2021/07/15 07:48:37;;;;;;;8.03;2.92;;;;;;;39.67;26.59;100845.47;1783931;80;20848;-74
2021/07/15 07:51:04;;;;;;;3.83;2.02;;;;;;;39.69;27.00;100842.42;1783739;80;21093;-73
2021/07/15 07:53:33;;;;;;;7.65;3.20;;;;;;;39.75;26.15;100839.37;1783317;80;20940;-73
2021/07/15 07:55:59;;;;;;;6.72;2.90;;;;;;;39.88;26.72;100842.64;1783866;80;21353;-72
2021/07/15 07:58:27;;;;;;;5.72;2.42;;;;;;;39.98;25.99;100841.22;1783528;80;20907;-72
2021/07/15 08:00:54;;;;;;;6.65;2.08;;;;;;;40.02;26.01;100838.15;1783822;80;20935;-74
2021/07/15 08:03:21;;;;;;;4.58;2.35;;;;;;;40.16;26.15;100845.23;1783558;80;21123;-72
2021/07/15 08:05:48;;;;;;;3.37;2.83;;;;;;;40.26;25.81;100840.20;1783728;80;20908;-72
2021/07/15 08:08:21;;;;;;;4.90;2.42;;;;;;;40.23;26.12;100845.72;1783382;80;21439;-74
2021/07/15 08:10:44;;;;;;;8.28;2.27;;;;;;;40.19;26.17;100834.47;1782880;80;20915;-74
2021/07/15 08:13:11;;;;;;;6.83;2.33;;;;;;;40.29;26.64;100835.00;1783481;80;20920;-72
2021/07/15 08:15:38;;;;;;;5.22;2.17;;;;;;;40.43;27.21;100839.84;1783637;80;21107;-72
2021/07/15 08:18:06;;;;;;;8.13;2.65;;;;;;;40.52;26.62;100826.55;1783389;80;20928;-73
2021/07/15 08:20:33;;;;;;;6.00;2.25;;;;;;;40.69;26.36;100828.89;1783468;80;20885;-72
2021/07/15 08:23:01;;;;;;;6.17;2.10;;;;;;;40.81;25.75;100831.27;1783542;80;20900;-73
2021/07/15 08:25:28;;;;;;;9.65;2.92;;;;;;;40.88;24.70;100827.62;1783599;80;21358;-74
2021/07/15 08:27:55;;;;;;;7.35;2.27;;;;;;;40.97;24.38;100824.48;1783401;80;21079;-75
2021/07/15 08:30:22;;;;;;;2.08;1.70;;;;;;;41.11;23.95;100823.27;1777643;80;20925;-75
2021/07/15 08:32:49;;;;;;;3.00;1.47;;;;;;;41.17;23.01;100825.42;1775301;80;20948;-74
2021/07/15 08:35:16;;;;;;;7.17;1.60;;;;;;;41.20;22.17;100820.16;1775415;80;20881;-72
2021/07/15 08:37:43;;;;;;;7.75;1.67;;;;;;;41.25;22.32;100821.22;1775224;80;20888;-72
2021/07/15 08:40:11;;;;;;;5.85;1.90;;;;;;;41.21;21.63;100813.53;1775409;80;21467;-73
2021/07/15 08:42:39;;;;;;;5.15;1.45;;;;;;;41.15;21.96;100815.25;1775191;80;20885;-72
2021/07/15 08:45:09;;;;;;;3.10;1.80;;;;;;;41.18;21.58;100812.75;1775127;80;20908;-73
2021/07/15 08:47:38;;;;;;;4.40;1.75;;;;;;;41.21;22.24;100812.72;1775232;80;20940;-73
2021/07/15 08:50:07;;;;;;;3.42;1.45;;;;;;;41.35;22.48;100813.63;1775082;80;20849;-70
2021/07/15 08:52:37;;;;;;;3.67;1.70;;;;;;;41.42;21.67;100815.48;1775181;80;21523;-63
2021/07/15 08:57:33;;;;;;;4.17;1.67;;;;;;;41.16;22.60;100810.84;1775328;80;21434;-64
2021/07/15 09:00:00;;;;;;;4.25;1.77;;;;;;;41.12;23.25;100811.69;1775324;80;21007;-64
2021/07/15 09:02:28;;;;;;;2.50;1.37;;;;;;;41.13;23.22;100812.78;1775508;80;21409;-63
2021/07/15 09:04:56;;;;;;;2.25;1.67;;;;;;;41.11;21.77;100811.41;1775638;80;22002;-63
2021/07/15 09:07:24;;;;;;;1.17;1.12;;;;;;;41.13;22.51;100804.53;1775320;80;20857;-63
2021/07/15 09:09:51;;;;;;;2.95;1.07;;;;;;;41.18;21.36;100810.56;1775398;80;21512;-64
2021/07/15 09:12:18;;;;;;;2.62;1.05;;;;;;;41.26;21.52;100806.33;1728623;80;20869;-63
2021/07/15 09:14:54;;;;;;;4.47;1.72;;;;;;;41.28;21.61;100804.10;1775401;80;20876;-64
2021/07/15 09:17:31;;;;;;;5.28;1.05;;;;;;;41.35;21.12;100801.80;1775446;80;21140;-65
2021/07/15 09:19:59;;;;;;;1.98;0.93;;;;;;;41.45;20.63;100798.93;1774995;80;20904;-63
2021/07/15 09:22:26;;;;;;;3.05;0.80;;;;;;;41.55;19.77;100802.91;1775345;80;20849;-64
2021/07/15 09:24:53;;;;;;;1.90;0.75;;;;;;;41.60;18.65;100796.01;1775654;80;21389;-62
2021/07/15 09:27:24;;;;;;;5.15;0.70;;;;;;;41.69;18.49;100792.56;1775262;80;20936;-63
2021/07/15 09:30:13;;;;;;;1.95;0.60;;;;;;;41.71;17.84;100798.59;1776985;80;20877;-64
2021/07/15 09:33:01;;;;;;;3.60;0.55;;;;;;;41.79;17.96;100793.81;1775185;80;20928;-64
2021/07/15 09:35:32;;;;;;;2.15;0.75;;;;;;;41.92;18.38;100793.63;1775287;80;20887;-64
2021/07/15 09:38:25;;;;;;;5.45;0.90;;;;;;;41.99;18.32;100796.84;1775321;80;21019;-64
2021/07/15 09:40:55;;;;;;;4.72;0.53;;;;;;;42.04;18.16;100796.19;1775389;80;21422;-63
2021/07/15 09:43:32;;;;;;;3.33;0.50;;;;;;;41.99;18.07;100791.34;1778891;80;21109;-64
2021/07/15 09:46:17;;;;;;;4.85;0.82;;;;;;;41.97;19.01;100796.30;1775330;80;20920;-63
2021/07/15 09:48:51;;;;;;;3.85;1.00;;;;;;;41.92;18.36;100792.25;1775423;80;21009;-64
2021/07/15 09:51:18;;;;;;;7.95;1.60;;;;;;;41.87;18.66;100789.55;1753990;80;21354;-64
2021/07/15 09:53:47;;;;;;;3.05;1.25;;;;;;;41.91;19.28;100791.44;1775418;80;20916;-64
2021/07/15 09:56:16;;;;;;;3.85;1.37;;;;;;;42.06;19.51;100793.14;1775360;80;21177;-63
2021/07/15 09:58:48;;;;;;;7.95;1.50;;;;;;;42.15;19.11;100789.96;1775266;80;20971;-66
2021/07/15 10:01:24;;;;;;;3.55;1.07;;;;;;;42.28;19.23;100785.63;1775308;80;20893;-63
2021/07/15 10:03:57;;;;;;;1.17;1.00;;;;;;;42.38;19.80;100785.46;1775292;80;20936;-64
2021/07/15 10:06:25;;;;;;;3.47;1.40;;;;;;;42.44;18.18;100780.69;1775322;80;20987;-65
2021/07/15 10:08:54;;;;;;;2.00;1.20;;;;;;;42.40;19.27;100777.73;1744736;80;21785;-64
2021/07/15 10:11:32;;;;;;;2.15;0.90;;;;;;;42.32;19.42;100777.02;1775402;80;20940;-64
2021/07/15 10:14:05;;;;;;;2.25;1.15;;;;;;;42.30;18.89;100777.06;1775256;80;20892;-64
2021/07/15 10:16:39;;;;;;;7.55;1.20;;;;;;;42.35;18.95;100769.50;1775471;80;20928;-64
2021/07/15 10:19:10;;;;;;;4.42;1.55;;;;;;;42.44;18.07;100773.23;1775394;80;21450;-64
2021/07/15 10:21:37;;;;;;;1.47;0.70;;;;;;;42.41;17.40;100773.03;1775339;80;21141;-65
2021/07/15 10:24:21;;;;;;;6.47;0.82;;;;;;;42.29;17.38;100766.60;1775230;80;20912;-64
2021/07/15 10:26:50;;;;;;;1.80;0.90;;;;;;;42.22;17.74;100765.61;1775336;80;20849;-65
2021/07/15 10:29:19;;;;;;;6.42;1.32;;;;;;;42.24;18.39;100760.59;1775283;80;20928;-64
2021/07/15 10:31:49;;;;;;;17.92;2.12;;;;;;;42.26;18.89;100764.42;1775375;80;21312;-64
2021/07/15 10:34:15;;;;;;;8.45;1.27;;;;;;;42.26;19.08;100765.00;1775658;80;21067;-64
2021/07/15 10:36:43;;;;;;;2.47;1.27;;;;;;;42.25;19.48;100760.05;1775210;80;20940;-64
2021/07/15 10:39:13;;;;;;;9.43;1.32;;;;;;;42.28;18.72;100751.73;1775291;80;20901;-65
2021/07/15 10:41:50;;;;;;;2.25;0.98;;;;;;;42.25;18.53;100751.78;1775192;80;20964;-64
2021/07/15 10:44:17;;;;;;;1.62;0.85;;;;;;;42.18;18.78;100749.41;1779070;80;21485;-63
2021/07/15 10:46:46;;;;;;;9.15;0.90;;;;;;;42.21;18.53;100746.61;1775250;80;20853;-64
2021/07/15 10:49:13;;;;;;;4.15;1.27;;;;;;;42.25;18.71;100744.89;1775540;80;20932;-63
2021/07/15 10:51:44;;;;;;;5.25;0.90;;;;;;;42.23;18.30;100742.98;1775321;80;21449;-64
2021/07/15 10:54:11;;;;;;;3.58;0.70;;;;;;;42.18;19.57;100739.77;1775246;80;21664;-63
2021/07/15 10:56:39;;;;;;;7.50;1.17;;;;;;;42.14;19.31;100741.48;1729652;80;21492;-64
2021/07/15 10:59:26;;;;;;;5.25;1.42;;;;;;;42.11;19.18;100748.95;1775187;80;21048;-63
2021/07/15 11:01:56;;;;;;;2.22;1.10;;;;;;;42.02;18.81;100741.97;1775292;80;20888;-64
2021/07/15 11:04:39;;;;;;;5.28;1.37;;;;;;;42.00;18.52;100730.95;1775562;80;20952;-63
2021/07/15 11:07:24;;;;;;;6.08;1.17;;;;;;;41.83;18.17;100736.44;1775185;80;21410;-65
2021/07/15 11:09:54;;;;;;;6.83;1.80;;;;;;;41.60;18.37;100734.05;1775519;80;20920;-66
2021/07/15 11:12:37;;;;;;;3.15;1.05;;;;;;;41.37;18.86;100733.50;1775197;80;21105;-64
2021/07/15 11:15:08;;;;;;;1.87;1.20;;;;;;;41.36;19.10;100732.70;1775519;80;20984;-64
2021/07/15 11:17:48;;;;;;;3.08;1.30;;;;;;;41.39;19.97;100731.28;1775311;80;20920;-65
2021/07/15 11:20:27;;;;;;;6.72;1.50;;;;;;;41.37;20.18;100727.44;1775494;80;20865;-63
2021/07/15 11:23:09;;;;;;;5.17;1.27;;;;;;;41.28;20.14;100731.16;1775253;80;20883;-64
2021/07/15 11:25:42;;;;;;;4.75;1.70;;;;;;;41.16;20.43;100727.47;1775656;80;21140;-64
2021/07/15 11:28:17;;;;;;;4.15;1.30;;;;;;;40.97;21.42;100727.38;1775175;80;20971;-65
2021/07/15 11:30:50;;;;;;;4.00;1.00;;;;;;;40.84;21.06;100725.34;1775241;80;20928;-64
2021/07/15 11:33:26;;;;;;;2.67;1.02;;;;;;;40.69;20.25;100718.04;1775048;80;20869;-64
2021/07/15 11:36:09;;;;;;;2.55;0.95;;;;;;;40.57;20.55;100718.45;1775227;80;21590;-64
2021/07/15 11:38:58;;;;;;;3.27;1.07;;;;;;;40.34;20.79;100714.57;1775427;80;21135;-63
2021/07/15 11:41:48;;;;;;;6.85;1.57;;;;;;;40.11;21.87;100716.10;1775192;80;21362;-64